createdAt,value
2022-08-11T00:01:56.522Z,99.90
2022-08-11T00:04:25.384Z,99.90
2022-08-11T00:06:53.474Z,99.90
2022-08-11T00:09:31.148Z,99.90
2022-08-11T00:11:59.094Z,99.90
2022-08-11T00:14:37.370Z,99.90
2022-08-11T00:17:06.489Z,99.90
2022-08-11T00:20:12.076Z,99.90
2022-08-11T00:22:27.317Z,99.90
2022-08-11T00:24:58.510Z,99.90
2022-08-11T00:27:35.925Z,99.90
2022-08-11T00:30:04.355Z,99.90
2022-08-11T00:32:31.729Z,99.90
2022-08-11T00:35:54.281Z,99.90
2022-08-11T00:37:50.497Z,99.90
2022-08-11T00:40:28.215Z,99.90
2022-08-11T00:43:26.489Z,99.90
2022-08-11T00:46:26.828Z,99.90
2022-08-11T00:49:02.447Z,99.90
2022-08-11T00:52:03.734Z,99.90
2022-08-11T00:54:38.602Z,99.90
2022-08-11T00:57:36.629Z,99.90
2022-08-11T01:00:24.164Z,99.90
2022-08-11T01:03:18.157Z,99.90
2022-08-11T01:06:09.997Z,99.90
2022-08-11T01:09:22.161Z,99.90
2022-08-11T01:12:51.061Z,99.90
2022-08-11T01:15:56.012Z,99.90
2022-08-11T01:18:28.476Z,99.90
2022-08-11T01:21:10.509Z,99.90
2022-08-11T01:23:58.816Z,99.90
2022-08-11T01:26:44.034Z,99.90
2022-08-11T01:29:22.785Z,99.90
2022-08-11T01:32:23.189Z,99.90
2022-08-11T01:35:02.013Z,99.90
2022-08-11T01:37:40.924Z,99.90
2022-08-11T01:40:23.229Z,99.90
2022-08-11T01:43:33.356Z,99.90
2022-08-11T01:46:30.805Z,99.90
2022-08-11T01:49:29.047Z,99.90
2022-08-11T01:52:13.079Z,99.90
2022-08-11T01:55:05.977Z,99.90
2022-08-11T01:57:48.503Z,99.90
2022-08-11T02:00:21.111Z,99.90
2022-08-11T02:03:21.757Z,99.90
2022-08-11T02:06:01.509Z,99.90
2022-08-11T02:08:50.715Z,99.90
2022-08-11T02:11:31.618Z,99.90
2022-08-11T02:14:26.360Z,99.90
2022-08-11T02:17:11.146Z,99.90
2022-08-11T02:20:08.639Z,99.90
2022-08-11T02:23:58.644Z,99.90
2022-08-11T02:26:23.175Z,99.90
2022-08-11T02:29:10.447Z,99.90
2022-08-11T02:32:25.652Z,99.90
2022-08-11T02:34:59.531Z,99.90
2022-08-11T02:37:38.955Z,99.90
2022-08-11T02:40:20.926Z,99.90
2022-08-11T02:43:18.915Z,99.90
2022-08-11T02:46:01.238Z,99.90
2022-08-11T02:49:12.065Z,99.90
2022-08-11T02:51:59.910Z,99.90
2022-08-11T02:54:53.729Z,99.90
2022-08-11T02:57:47.393Z,99.90
2022-08-11T03:00:17.411Z,99.90
2022-08-11T03:03:02.703Z,99.90
2022-08-11T03:05:51.213Z,99.90
2022-08-11T03:08:32.541Z,99.90
2022-08-11T03:11:31.126Z,99.90
2022-08-11T03:14:40.597Z,99.90
2022-08-11T03:17:24.042Z,99.90
2022-08-11T03:20:15.319Z,99.90
2022-08-11T03:23:06.341Z,99.90
2022-08-11T03:25:51.337Z,99.90
2022-08-11T03:28:29.271Z,99.90
2022-08-11T03:31:24.821Z,99.90
2022-08-11T03:34:07.557Z,99.90
2022-08-11T03:37:16.148Z,99.90
2022-08-11T03:40:06.569Z,99.90
2022-08-11T03:43:01.138Z,99.90
2022-08-11T03:45:44.725Z,99.90
2022-08-11T03:48:27.379Z,99.90
2022-08-11T03:50:55.949Z,99.90
2022-08-11T03:54:00.201Z,99.90
2022-08-11T03:56:51.701Z,99.90
2022-08-11T03:59:28.725Z,99.90
2022-08-11T04:02:32.700Z,99.90
2022-08-11T04:05:32.526Z,99.90
2022-08-11T04:08:44.551Z,99.90
2022-08-11T04:11:11.334Z,99.90
2022-08-11T04:14:16.926Z,99.90
2022-08-11T04:17:38.326Z,99.90
2022-08-11T04:20:37.667Z,99.90
2022-08-11T04:24:36.771Z,99.90
2022-08-11T04:26:45.678Z,99.90
2022-08-11T04:29:36.467Z,99.90
2022-08-11T04:32:55.293Z,99.90
2022-08-11T04:35:24.934Z,99.90
2022-08-11T04:38:16.184Z,99.90
2022-08-11T04:41:20.734Z,99.90
2022-08-11T04:44:26.399Z,99.90
2022-08-11T04:47:11.637Z,99.90
2022-08-11T04:50:03.102Z,99.90
2022-08-11T04:53:16.636Z,99.90
2022-08-11T04:56:14.118Z,99.90
2022-08-11T04:59:30.075Z,99.90
2022-08-11T05:02:35.555Z,99.90
2022-08-11T05:05:33.325Z,99.90
2022-08-11T05:08:03.582Z,99.90
2022-08-11T05:11:02.417Z,99.90
2022-08-11T05:14:04.785Z,99.90
2022-08-11T05:16:59.886Z,99.90
2022-08-11T05:19:45.749Z,99.90
2022-08-11T05:22:32.700Z,99.90
2022-08-11T05:26:43.961Z,99.90
2022-08-11T05:28:45.501Z,99.90
2022-08-11T05:31:34.069Z,99.90
2022-08-11T05:34:35.534Z,99.90
2022-08-11T05:37:36.579Z,99.90
2022-08-11T05:40:33.177Z,99.90
2022-08-11T05:43:21.063Z,99.90
2022-08-11T05:46:25.075Z,99.90
2022-08-11T05:49:11.325Z,99.90
2022-08-11T05:52:05.810Z,99.90
2022-08-11T05:55:00.076Z,99.90
2022-08-11T05:57:48.650Z,99.90
2022-08-11T06:00:19.467Z,99.90
2022-08-11T06:02:51.150Z,99.90
2022-08-11T06:05:33.046Z,99.90
2022-08-11T06:08:10.506Z,99.90
2022-08-11T06:10:40.695Z,99.90
2022-08-11T06:13:08.630Z,99.90
2022-08-11T06:15:49.121Z,99.90
2022-08-11T06:18:17.210Z,99.90
2022-08-11T06:21:08.535Z,99.90
2022-08-11T06:23:36.312Z,99.90
2022-08-11T06:26:09.497Z,99.90
2022-08-11T06:28:39.511Z,99.90
2022-08-11T06:31:33.171Z,99.90
2022-08-11T06:34:08.976Z,99.90
2022-08-11T06:36:39.429Z,99.90
2022-08-11T06:39:24.467Z,99.90
2022-08-11T06:41:56.894Z,99.90
2022-08-11T06:44:54.436Z,99.90
2022-08-11T06:47:22.038Z,99.90
2022-08-11T06:50:07.335Z,99.90
2022-08-11T06:52:36.713Z,99.90
2022-08-11T06:55:55.707Z,99.90
2022-08-11T06:58:52.195Z,99.90
2022-08-11T07:01:46.328Z,99.90
2022-08-11T07:04:23.907Z,99.90
2022-08-11T07:07:35.187Z,99.90
2022-08-11T07:10:39.068Z,99.90
2022-08-11T07:13:44.184Z,99.90
2022-08-11T07:16:16.186Z,99.90
2022-08-11T07:19:02.150Z,99.90
2022-08-11T07:22:01.823Z,99.90
2022-08-11T07:25:03.463Z,99.90
2022-08-11T07:28:01.876Z,99.90
2022-08-11T07:30:30.023Z,99.90
2022-08-11T07:33:00.610Z,99.90
2022-08-11T07:35:45.837Z,99.90
2022-08-11T07:38:22.918Z,99.90
2022-08-11T07:40:52.474Z,99.90
2022-08-11T07:43:19.897Z,99.90
2022-08-11T07:46:06.197Z,99.90
2022-08-11T07:48:53.563Z,99.90
2022-08-11T07:51:39.917Z,99.90
2022-08-11T07:54:07.740Z,99.90
2022-08-11T07:56:55.106Z,99.90
2022-08-11T08:00:00.674Z,99.90
2022-08-11T08:03:02.275Z,99.90
2022-08-11T08:05:49.137Z,99.90
2022-08-11T08:08:35.773Z,99.90
2022-08-11T08:11:27.064Z,99.90
2022-08-11T08:14:13.989Z,99.90
2022-08-11T08:16:59.925Z,99.90
2022-08-11T08:19:27.733Z,99.90
2022-08-11T08:21:55.099Z,99.90
2022-08-11T08:24:34.890Z,99.90
2022-08-11T08:27:03.103Z,99.90
2022-08-11T08:29:53.114Z,99.90
2022-08-11T08:32:21.796Z,99.90
2022-08-11T08:34:54.996Z,99.90
2022-08-11T08:37:45.849Z,99.90
2022-08-11T08:40:13.155Z,99.90
2022-08-11T08:42:46.308Z,99.90
2022-08-11T08:45:20.779Z,99.90
2022-08-11T08:47:58.823Z,99.90
2022-08-11T08:50:54.878Z,99.90
2022-08-11T08:53:29.631Z,99.90
2022-08-11T08:55:59.784Z,99.90
2022-08-11T08:58:27.732Z,99.90
2022-08-11T09:00:56.552Z,99.90
2022-08-11T09:03:41.900Z,99.90
2022-08-11T09:06:11.368Z,99.90
2022-08-11T09:08:40.892Z,99.90
2022-08-11T09:11:26.950Z,99.90
2022-08-11T09:14:06.491Z,99.90
2022-08-11T09:16:39.286Z,99.90
2022-08-11T09:19:08.084Z,99.90
2022-08-11T09:21:44.584Z,99.90
2022-08-11T09:24:37.089Z,99.90
2022-08-11T09:27:08.507Z,99.90
2022-08-11T09:29:38.222Z,99.90
2022-08-11T09:32:08.345Z,99.90
2022-08-11T09:34:37.441Z,99.90
2022-08-11T09:37:29.026Z,99.90
2022-08-11T09:40:33.443Z,99.90
2022-08-11T09:43:23.923Z,99.90
2022-08-11T09:45:53.017Z,99.90
2022-08-11T09:48:21.868Z,99.90
2022-08-11T09:50:51.608Z,99.90
2022-08-11T09:53:38.158Z,99.90
2022-08-11T09:56:30.664Z,99.90
2022-08-11T09:58:58.708Z,99.90
2022-08-11T10:01:30.713Z,99.90
2022-08-11T10:04:03.875Z,99.90
2022-08-11T10:06:53.931Z,99.90
2022-08-11T10:09:25.275Z,99.90
2022-08-11T10:11:58.688Z,99.90
2022-08-11T10:14:46.832Z,99.90
2022-08-11T10:17:15.977Z,99.90
2022-08-11T10:20:01.963Z,99.90
2022-08-11T10:22:51.961Z,99.90
2022-08-11T10:25:39.078Z,99.90
2022-08-11T10:28:33.015Z,99.90
2022-08-11T10:31:16.393Z,99.90
2022-08-11T10:34:00.828Z,99.90
2022-08-11T10:36:31.656Z,99.90
2022-08-11T10:39:01.213Z,99.90
2022-08-11T10:42:06.100Z,99.90
2022-08-11T10:44:47.606Z,99.90
2022-08-11T10:47:34.497Z,99.90
2022-08-11T10:50:28.340Z,99.90
2022-08-11T10:53:16.383Z,99.90
2022-08-11T10:58:45.575Z,99.90
2022-08-11T11:01:14.668Z,99.90
2022-08-11T11:03:42.615Z,99.90
2022-08-11T11:06:29.228Z,99.90
2022-08-11T11:09:05.145Z,99.90
2022-08-11T11:11:57.326Z,98.80
2022-08-11T11:14:49.808Z,98.40
2022-08-11T11:17:53.607Z,97.80
2022-08-11T11:20:36.712Z,97.20
2022-08-11T11:23:09.183Z,97.80
2022-08-11T11:26:27.521Z,97.60
2022-08-11T11:29:27.103Z,97.60
2022-08-11T11:32:12.512Z,97.70
2022-08-11T11:35:04.436Z,96.80
2022-08-11T11:37:36.898Z,96.60
2022-08-11T11:40:16.585Z,97.00
2022-08-11T11:42:45.815Z,97.10
2022-08-11T11:45:22.593Z,96.90
2022-08-11T11:47:53.997Z,95.60
2022-08-11T11:50:32.761Z,94.80
2022-08-11T11:53:03.684Z,94.20
2022-08-11T11:55:31.949Z,91.80
2022-08-11T11:58:20.051Z,91.80
2022-08-11T12:01:09.275Z,92.00
2022-08-11T12:03:37.937Z,92.00
2022-08-11T12:06:06.899Z,91.20
2022-08-11T12:08:35.736Z,91.50
2022-08-11T12:11:24.385Z,92.00
2022-08-11T12:13:53.525Z,92.80
2022-08-11T12:16:32.774Z,93.10
2022-08-11T12:19:07.028Z,92.80
2022-08-11T12:21:37.024Z,92.20
2022-08-11T12:24:28.521Z,90.70
2022-08-11T12:27:18.213Z,89.90
2022-08-11T12:29:55.330Z,87.50
2022-08-11T12:32:25.961Z,87.20
2022-08-11T12:34:53.918Z,84.10
2022-08-11T12:37:30.119Z,85.30
2022-08-11T12:40:43.804Z,83.10
2022-08-11T12:43:38.178Z,83.70
2022-08-11T12:46:14.228Z,83.10
2022-08-11T12:49:09.237Z,81.70
2022-08-11T12:52:11.287Z,83.90
2022-08-11T12:55:00.618Z,84.20
2022-08-11T12:57:48.799Z,84.20
2022-08-11T13:00:36.175Z,83.60
2022-08-11T13:03:24.048Z,83.60
2022-08-11T13:05:54.249Z,80.80
2022-08-11T13:08:24.895Z,82.00
2022-08-11T13:11:12.579Z,81.00
2022-08-11T13:13:53.917Z,81.70
2022-08-11T13:16:26.559Z,81.90
2022-08-11T13:18:54.315Z,82.80
2022-08-11T13:21:22.807Z,81.70
2022-08-11T13:24:01.819Z,81.70
2022-08-11T13:26:47.254Z,81.30
2022-08-11T13:29:25.211Z,82.60
2022-08-11T13:31:56.025Z,84.70
2022-08-11T13:34:25.533Z,84.60
2022-08-11T13:36:55.345Z,85.60
2022-08-11T13:39:26.902Z,86.10
2022-08-11T13:41:56.626Z,85.80
2022-08-11T13:44:27.495Z,86.20
2022-08-11T13:46:58.380Z,86.80
2022-08-11T13:49:26.796Z,87.00
2022-08-11T13:51:55.228Z,88.20
2022-08-11T13:54:30.008Z,90.00
2022-08-11T13:57:03.277Z,90.60
2022-08-11T13:59:43.994Z,90.50
2022-08-11T14:02:29.302Z,90.80
2022-08-11T14:05:08.203Z,90.70
2022-08-11T14:07:39.188Z,90.00
2022-08-11T14:10:08.975Z,89.70
2022-08-11T14:12:56.273Z,89.90
2022-08-11T14:15:27.845Z,89.80
2022-08-11T14:18:07.242Z,90.40
2022-08-11T14:21:00.678Z,90.20
2022-08-11T14:23:39.853Z,90.40
2022-08-11T14:26:24.213Z,91.50
2022-08-11T14:28:55.053Z,91.50
2022-08-11T14:31:28.112Z,91.00
2022-08-11T14:34:00.722Z,90.90
2022-08-11T14:36:40.635Z,90.50
2022-08-11T14:39:13.229Z,90.90
2022-08-11T14:42:10.344Z,90.70
2022-08-11T14:45:04.120Z,90.80
2022-08-11T14:47:34.263Z,91.80
2022-08-11T14:50:11.623Z,91.90
2022-08-11T14:53:09.163Z,91.50
2022-08-11T14:55:56.404Z,91.40
2022-08-11T14:58:25.991Z,91.70
2022-08-11T15:00:55.459Z,91.30
2022-08-11T15:03:28.262Z,91.60
2022-08-11T15:05:58.700Z,92.20
2022-08-11T15:08:52.214Z,92.90
2022-08-11T15:11:40.038Z,93.60
2022-08-11T15:14:09.758Z,94.00
2022-08-11T15:17:02.252Z,94.30
2022-08-11T15:19:37.506Z,94.50
2022-08-11T15:22:28.586Z,94.70
2022-08-11T15:24:58.087Z,94.60
2022-08-11T15:27:45.612Z,94.70
2022-08-11T15:30:33.858Z,94.90
2022-08-11T15:33:25.835Z,95.00
2022-08-11T15:36:13.239Z,95.10
2022-08-11T15:38:49.233Z,95.10
2022-08-11T15:41:58.518Z,95.00
2022-08-11T15:45:04.842Z,95.50
2022-08-11T15:47:58.410Z,94.90
2022-08-11T15:50:34.514Z,95.10
2022-08-11T15:53:05.866Z,94.80
2022-08-11T15:55:35.183Z,94.90
2022-08-11T15:58:24.514Z,95.10
2022-08-11T16:01:11.795Z,94.50
2022-08-11T16:04:13.722Z,94.80
2022-08-11T16:07:05.909Z,94.10
2022-08-11T16:09:47.591Z,94.00
2022-08-11T16:12:30.929Z,94.00
2022-08-11T16:15:28.129Z,94.10
2022-08-11T16:18:03.352Z,94.30
2022-08-11T16:20:31.789Z,94.30
2022-08-11T16:23:03.276Z,94.30
2022-08-11T16:27:01.924Z,94.30
2022-08-11T16:28:23.175Z,95.00
2022-08-11T16:30:51.758Z,94.60
2022-08-11T16:33:48.565Z,94.60
2022-08-11T16:36:29.097Z,94.60
2022-08-11T16:38:58.037Z,95.00
2022-08-11T16:41:47.153Z,95.00
2022-08-11T16:44:37.856Z,94.90
2022-08-11T16:47:11.992Z,94.90
2022-08-11T16:49:43.605Z,94.60
2022-08-11T16:52:20.243Z,95.00
2022-08-11T16:54:50.085Z,94.70
2022-08-11T16:57:45.636Z,94.90
2022-08-11T17:00:17.015Z,95.20
2022-08-11T17:03:10.959Z,95.20
2022-08-11T17:06:03.788Z,94.90
2022-08-11T17:08:56.908Z,93.50
2022-08-11T17:11:48.452Z,93.00
2022-08-11T17:14:35.276Z,92.50
2022-08-11T17:17:06.027Z,92.60
2022-08-11T17:20:42.019Z,92.40
2022-08-11T17:22:43.931Z,92.80
2022-08-11T17:25:11.796Z,92.90
2022-08-11T17:27:39.538Z,92.70
2022-08-11T17:30:08.470Z,92.60
2022-08-11T17:33:00.835Z,92.70
2022-08-11T17:35:38.631Z,92.80
2022-08-11T17:38:11.025Z,92.70
2022-08-11T17:41:01.383Z,93.00
2022-08-11T17:43:48.613Z,93.20
2022-08-11T17:46:35.402Z,92.70
2022-08-11T17:49:07.685Z,92.70
2022-08-11T17:51:54.406Z,92.70
2022-08-11T17:54:41.683Z,92.80
2022-08-11T17:57:29.027Z,92.90
2022-08-11T17:59:57.890Z,93.10
2022-08-11T18:02:57.975Z,93.40
2022-08-11T18:05:30.272Z,93.80
2022-08-11T18:08:19.655Z,94.00
2022-08-11T18:11:06.472Z,94.00
2022-08-11T18:13:59.309Z,94.20
2022-08-11T18:16:45.337Z,94.50
2022-08-11T18:19:31.254Z,94.80
2022-08-11T18:22:48.224Z,95.20
2022-08-11T18:25:42.058Z,95.50
2022-08-11T18:28:33.648Z,95.90
2022-08-11T18:31:22.202Z,96.20
2022-08-11T18:34:13.060Z,96.40
2022-08-11T18:37:06.591Z,96.50
2022-08-11T18:39:56.513Z,96.50
2022-08-11T18:42:45.790Z,97.30
2022-08-11T18:45:45.470Z,97.20
2022-08-11T18:48:35.910Z,97.60
2022-08-11T18:51:30.702Z,98.00
2022-08-11T18:54:26.522Z,98.00
2022-08-11T18:57:14.618Z,99.90
2022-08-11T19:00:02.382Z,99.90
2022-08-11T19:02:50.834Z,99.90
2022-08-11T19:06:35.621Z,99.90
2022-08-11T19:08:49.949Z,99.90
2022-08-11T19:11:42.710Z,99.90
2022-08-11T19:14:30.886Z,99.90
2022-08-11T19:17:45.125Z,99.90
2022-08-11T19:20:26.812Z,99.90
2022-08-11T19:23:13.994Z,99.90
2022-08-11T19:26:01.870Z,99.90
2022-08-11T19:28:48.337Z,99.90
2022-08-11T19:31:34.012Z,99.90
2022-08-11T19:34:20.771Z,99.90
2022-08-11T19:37:07.254Z,99.90
2022-08-11T19:39:54.107Z,99.90
2022-08-11T19:42:41.164Z,99.90
2022-08-11T19:45:27.740Z,99.90
2022-08-11T19:48:31.108Z,99.90
2022-08-11T19:51:19.262Z,99.90
2022-08-11T19:54:06.678Z,99.90
2022-08-11T19:56:53.264Z,99.90
2022-08-11T19:59:40.681Z,99.90
2022-08-11T20:02:26.038Z,99.90
2022-08-11T20:05:11.408Z,99.90
2022-08-11T20:07:57.176Z,99.90
2022-08-11T20:10:45.062Z,99.90
2022-08-11T20:13:32.525Z,99.90
2022-08-11T20:16:20.358Z,99.90
2022-08-11T20:19:08.617Z,99.90
2022-08-11T20:21:55.958Z,99.90
2022-08-11T20:24:41.801Z,99.90
2022-08-11T20:27:28.106Z,99.90
2022-08-11T20:30:15.574Z,99.90
2022-08-11T20:33:01.961Z,99.90
2022-08-11T20:35:49.898Z,99.90
2022-08-11T20:38:36.231Z,99.90
2022-08-11T20:41:22.525Z,99.90
2022-08-11T20:44:09.915Z,99.90
2022-08-11T20:46:59.584Z,99.90
2022-08-11T20:49:56.604Z,99.90
2022-08-11T20:52:48.649Z,99.90
2022-08-11T20:55:51.321Z,99.90
2022-08-11T20:59:13.259Z,99.90
2022-08-11T21:01:45.799Z,99.90
2022-08-11T21:04:32.514Z,99.90
2022-08-11T21:07:27.081Z,99.90
2022-08-11T21:10:23.728Z,99.90
2022-08-11T21:13:27.110Z,99.90
2022-08-11T21:16:26.187Z,99.90
2022-08-11T21:19:59.854Z,99.90
2022-08-11T21:22:38.915Z,99.90
2022-08-11T21:25:29.378Z,99.90
2022-08-11T21:28:20.927Z,99.90
2022-08-11T21:31:08.390Z,99.90
2022-08-11T21:33:55.755Z,99.90
2022-08-11T21:36:43.114Z,99.90
2022-08-11T21:39:32.229Z,99.90
2022-08-11T21:42:19.708Z,99.90
2022-08-11T21:45:07.282Z,99.90
2022-08-11T21:48:01.203Z,99.90
2022-08-11T21:50:47.937Z,99.90
2022-08-11T21:53:34.543Z,99.90
2022-08-11T21:56:20.758Z,99.90
2022-08-11T21:59:07.414Z,99.90
2022-08-11T22:01:53.974Z,99.90
2022-08-11T22:04:39.890Z,99.90
2022-08-11T22:07:26.099Z,99.90
2022-08-11T22:10:40.565Z,99.90
2022-08-11T22:13:17.405Z,99.90
2022-08-11T22:16:03.420Z,99.90
2022-08-11T22:18:50.181Z,99.90
2022-08-11T22:22:03.315Z,99.90
2022-08-11T22:24:43.314Z,99.90
2022-08-11T22:27:28.762Z,99.90
2022-08-11T22:30:14.195Z,99.90
2022-08-11T22:33:00.154Z,99.90
2022-08-11T22:35:46.402Z,99.90
2022-08-11T22:38:33.519Z,99.90
2022-08-11T22:41:21.143Z,99.90
2022-08-11T22:44:06.502Z,99.90
2022-08-11T22:46:53.384Z,99.90
2022-08-11T22:49:57.249Z,99.90
2022-08-11T22:52:44.861Z,99.90
2022-08-11T22:55:31.677Z,99.90
2022-08-11T22:58:17.445Z,99.90
2022-08-11T23:01:03.437Z,99.90
2022-08-11T23:03:50.425Z,99.90
2022-08-11T23:06:37.749Z,99.90
2022-08-11T23:09:26.727Z,99.90
2022-08-11T23:12:13.378Z,99.90
2022-08-11T23:15:00.313Z,99.90
2022-08-11T23:17:46.780Z,99.90
2022-08-11T23:20:39.148Z,99.90
2022-08-11T23:23:34.470Z,99.90
2022-08-11T23:26:20.960Z,99.90
2022-08-11T23:29:06.463Z,99.90
2022-08-11T23:31:55.051Z,99.90
2022-08-11T23:35:04.091Z,99.90
2022-08-11T23:37:53.873Z,99.90
2022-08-11T23:40:39.146Z,99.90
2022-08-11T23:43:25.691Z,99.90
2022-08-11T23:46:11.677Z,99.90
2022-08-11T23:48:57.998Z,99.90
2022-08-11T23:51:44.994Z,99.90
2022-08-11T23:54:36.901Z,99.90
2022-08-11T23:57:23.759Z,99.90
